createdAt,value
2023-04-05T00:02:24.779Z,100214.50
2023-04-05T00:04:54.992Z,100219.09
2023-04-05T00:07:24.668Z,100216.34
2023-04-05T00:09:52.713Z,100219.16
2023-04-05T00:12:21.334Z,100216.56
2023-04-05T00:14:48.936Z,100204.91
2023-04-05T00:17:18.221Z,100210.34
2023-04-05T00:19:45.755Z,100214.16
2023-04-05T00:22:14.009Z,100213.28
2023-04-05T00:24:43.548Z,100210.63
2023-04-05T00:27:12.026Z,100206.00
2023-04-05T00:29:40.040Z,100201.09
2023-04-05T00:32:07.927Z,100197.34
2023-04-05T00:34:35.795Z,100190.34
2023-04-05T00:37:03.827Z,100199.16
2023-04-05T00:39:32.047Z,100202.97
2023-04-05T00:42:06.241Z,100203.19
2023-04-05T00:44:35.173Z,100195.19
2023-04-05T00:47:07.830Z,100198.47
2023-04-05T00:49:38.982Z,100208.56
2023-04-05T00:52:07.016Z,100202.31
2023-04-05T00:54:35.243Z,100203.09
2023-04-05T00:57:03.516Z,100198.56
2023-04-05T00:59:31.452Z,100193.56
2023-04-05T01:02:02.749Z,100204.03
2023-04-05T01:04:33.044Z,100207.56
2023-04-05T01:07:14.540Z,100195.25
2023-04-05T01:09:53.839Z,100195.31
2023-04-05T01:12:23.597Z,100195.34
2023-04-05T01:14:54.241Z,100190.38
2023-04-05T01:17:24.519Z,100192.06
2023-04-05T01:19:58.991Z,100199.81
2023-04-05T01:23:04.550Z,100201.09
2023-04-05T01:26:09.162Z,100195.78
2023-04-05T01:28:58.614Z,100199.53
2023-04-05T01:31:44.040Z,100195.12
2023-04-05T01:34:34.512Z,100195.97
2023-04-05T01:37:06.615Z,100189.16
2023-04-05T01:39:36.449Z,100199.78
2023-04-05T01:42:06.152Z,100191.00
2023-04-05T01:44:33.770Z,100185.03
2023-04-05T01:47:01.435Z,100196.50
2023-04-05T01:49:29.305Z,100194.53
2023-04-05T01:51:58.120Z,100191.88
2023-04-05T01:54:25.596Z,100196.37
2023-04-05T01:56:54.118Z,100188.53
2023-04-05T01:59:23.107Z,100192.16
2023-04-05T02:01:53.606Z,100191.34
2023-04-05T02:04:24.496Z,100192.25
2023-04-05T02:06:53.077Z,100193.09
2023-04-05T02:09:21.687Z,100196.66
2023-04-05T02:11:49.957Z,100196.69
2023-04-05T02:14:20.399Z,100190.53
2023-04-05T02:16:49.785Z,100195.09
2023-04-05T02:19:23.287Z,100193.19
2023-04-05T02:21:58.036Z,100194.22
2023-04-05T02:24:26.861Z,100189.81
2023-04-05T02:26:54.806Z,100192.53
2023-04-05T02:29:32.109Z,100185.72
2023-04-05T02:32:01.096Z,100188.31
2023-04-05T02:34:29.114Z,100189.25
2023-04-05T02:36:59.408Z,100180.72
2023-04-05T02:39:29.118Z,100187.50
2023-04-05T02:41:59.428Z,100182.09
2023-04-05T02:44:30.036Z,100188.44
2023-04-05T02:46:58.230Z,100186.72
2023-04-05T02:49:26.259Z,100184.88
2023-04-05T02:51:56.355Z,100182.91
2023-04-05T02:54:25.300Z,100182.22
2023-04-05T02:56:54.836Z,100184.78
2023-04-05T02:59:23.823Z,100181.47
2023-04-05T03:01:51.798Z,100185.09
2023-04-05T03:04:21.636Z,100186.03
2023-04-05T03:06:57.454Z,100184.47
2023-04-05T03:09:32.833Z,100187.13
2023-04-05T03:12:04.482Z,100181.69
2023-04-05T03:14:34.562Z,100174.75
2023-04-05T03:17:06.489Z,100180.94
2023-04-05T03:19:35.892Z,100182.28
2023-04-05T03:22:05.471Z,100184.53
2023-04-05T03:24:33.521Z,100179.16
2023-04-05T03:27:04.251Z,100187.88
2023-04-05T03:29:34.877Z,100184.41
2023-04-05T03:32:12.682Z,100185.22
2023-04-05T03:34:42.219Z,100192.53
2023-04-05T03:37:12.077Z,100190.63
2023-04-05T03:39:39.971Z,100190.81
2023-04-05T03:42:08.176Z,100202.94
2023-04-05T03:44:37.399Z,100195.84
2023-04-05T03:47:06.174Z,100198.62
2023-04-05T03:49:35.238Z,100209.03
2023-04-05T03:52:10.817Z,100199.34
2023-04-05T03:54:43.315Z,100205.56
2023-04-05T03:57:12.241Z,100215.06
2023-04-05T03:59:41.676Z,100210.88
2023-04-05T04:02:11.256Z,100211.00
2023-04-05T04:04:39.811Z,100209.09
2023-04-05T04:07:11.088Z,100211.72
2023-04-05T04:09:39.557Z,100213.50
2023-04-05T04:12:08.469Z,100210.88
2023-04-05T04:14:40.035Z,100216.22
2023-04-05T04:17:12.866Z,100213.66
2023-04-05T04:19:53.492Z,100209.16
2023-04-05T04:22:22.711Z,100212.66
2023-04-05T04:24:53.653Z,100208.31
2023-04-05T04:27:29.485Z,100215.12
2023-04-05T04:30:10.971Z,100214.66
2023-04-05T04:32:55.673Z,100219.69
2023-04-05T04:35:30.767Z,100210.31
2023-04-05T04:38:04.752Z,100218.34
2023-04-05T04:40:40.370Z,100217.47
2023-04-05T04:43:17.494Z,100213.50
2023-04-05T04:45:55.012Z,100217.34
2023-04-05T04:48:25.873Z,100219.09
2023-04-05T04:50:58.746Z,100219.75
2023-04-05T04:53:34.091Z,100220.53
2023-04-05T04:56:09.045Z,100224.13
2023-04-05T04:58:39.713Z,100221.69
2023-04-05T05:03:55.656Z,100223.94
2023-04-05T05:06:31.000Z,100236.28
2023-04-05T05:08:59.236Z,100230.66
2023-04-05T05:11:29.115Z,100230.37
2023-04-05T05:14:04.066Z,100227.69
2023-04-05T05:16:33.811Z,100229.47
2023-04-05T05:19:01.832Z,100226.84
2023-04-05T05:21:37.231Z,100234.41
2023-04-05T05:24:10.270Z,100231.84
2023-04-05T05:26:39.664Z,100237.16
2023-04-05T05:29:21.631Z,100232.06
2023-04-05T05:31:54.828Z,100237.28
2023-04-05T05:34:24.780Z,100238.16
2023-04-05T05:36:56.130Z,100244.34
2023-04-05T05:39:27.844Z,100236.38
2023-04-05T05:41:57.670Z,100237.59
2023-04-05T05:44:26.161Z,100232.06
2023-04-05T05:46:59.163Z,100231.03
2023-04-05T05:49:33.646Z,100230.22
2023-04-05T05:52:04.560Z,100234.03
2023-04-05T05:54:33.111Z,100227.94
2023-04-05T05:57:04.724Z,100228.47
2023-04-05T05:59:39.600Z,100226.03
2023-04-05T06:02:10.712Z,100226.59
2023-04-05T06:04:39.646Z,100233.78
2023-04-05T06:07:07.842Z,100222.09
2023-04-05T06:09:38.110Z,100233.13
2023-04-05T06:12:09.072Z,100226.59
2023-04-05T06:14:37.880Z,100218.28
2023-04-05T06:17:10.515Z,100233.28
2023-04-05T06:19:39.440Z,100231.16
2023-04-05T06:24:54.303Z,100223.72
2023-04-05T06:27:24.630Z,100229.38
2023-04-05T06:29:54.139Z,100223.94
2023-04-05T06:32:25.984Z,100226.28
2023-04-05T06:34:54.717Z,100225.81
2023-04-05T06:37:28.847Z,100231.66
2023-04-05T06:40:07.628Z,100227.72
2023-04-05T06:42:37.728Z,100219.56
2023-04-05T06:45:10.610Z,100216.84
2023-04-05T06:47:42.441Z,100214.25
2023-04-05T06:52:50.655Z,100216.59
2023-04-05T06:55:19.344Z,100211.28
2023-04-05T06:57:46.954Z,100217.88
2023-04-05T07:00:19.932Z,100218.19
2023-04-05T07:02:54.864Z,100209.91
2023-04-05T07:05:38.686Z,100212.91
2023-04-05T07:08:09.405Z,100210.03
2023-04-05T07:10:41.807Z,100205.34
2023-04-05T07:13:10.118Z,100204.78
2023-04-05T07:15:41.016Z,100199.06
2023-04-05T07:18:19.438Z,100207.84
2023-04-05T07:20:52.333Z,100212.97
2023-04-05T07:23:23.060Z,100224.31
2023-04-05T07:25:53.265Z,100211.38
2023-04-05T07:28:26.613Z,100206.53
2023-04-05T07:31:05.812Z,100210.16
2023-04-05T07:33:35.689Z,100207.06
2023-04-05T07:36:08.603Z,100204.97
2023-04-05T07:38:37.370Z,100203.81
2023-04-05T07:41:16.680Z,100199.28
2023-04-05T07:43:47.216Z,100200.38
2023-04-05T07:46:17.759Z,100204.00
2023-04-05T07:48:49.873Z,100199.41
2023-04-05T07:51:17.837Z,100203.03
2023-04-05T07:53:52.511Z,100206.41
2023-04-05T07:56:23.198Z,100202.78
2023-04-05T07:58:56.242Z,100208.56
2023-04-05T08:01:29.656Z,100209.91
2023-04-05T08:03:59.028Z,100204.75
2023-04-05T08:06:31.225Z,100204.66
2023-04-05T08:08:59.257Z,100207.63
2023-04-05T08:11:27.468Z,100199.13
2023-04-05T08:13:56.835Z,100198.44
2023-04-05T08:16:28.682Z,100195.56
2023-04-05T08:18:59.169Z,100200.44
2023-04-05T08:21:28.799Z,100190.97
2023-04-05T08:23:57.122Z,100196.19
2023-04-05T08:26:26.263Z,100178.28
2023-04-05T08:28:57.066Z,100192.25
2023-04-05T08:31:26.912Z,100191.66
2023-04-05T08:33:58.684Z,100196.41
2023-04-05T08:36:28.958Z,100197.91
2023-04-05T08:38:57.582Z,100192.56
2023-04-05T08:41:29.024Z,100196.72
2023-04-05T08:44:04.612Z,100189.63
2023-04-05T08:46:34.160Z,100194.22
2023-04-05T08:49:08.354Z,100195.19
2023-04-05T08:51:41.070Z,100190.06
2023-04-05T08:54:10.178Z,100193.84
2023-04-05T08:59:22.320Z,100181.09
2023-04-05T09:01:53.634Z,100192.16
2023-04-05T09:04:27.731Z,100170.34
2023-04-05T09:07:00.144Z,100181.50
2023-04-05T09:09:35.777Z,100177.69
2023-04-05T09:12:14.458Z,100180.47
2023-04-05T09:14:48.646Z,100181.53
2023-04-05T09:17:20.145Z,100173.84
2023-04-05T09:19:50.714Z,100181.22
2023-04-05T09:22:33.721Z,100176.78
2023-04-05T09:25:12.254Z,100178.09
2023-04-05T09:27:57.921Z,100167.44
2023-04-05T09:30:28.095Z,100172.22
2023-04-05T09:32:59.155Z,100165.53
2023-04-05T09:35:29.996Z,100163.69
2023-04-05T09:38:05.637Z,100165.41
2023-04-05T09:40:43.983Z,100157.66
2023-04-05T09:43:14.631Z,100169.72
2023-04-05T09:45:46.768Z,100167.84
2023-04-05T09:48:16.264Z,100154.38
2023-04-05T09:50:46.069Z,100147.59
2023-04-05T09:53:19.102Z,100148.50
2023-04-05T09:55:56.736Z,100134.72
2023-04-05T09:58:25.908Z,100145.75
2023-04-05T10:01:09.715Z,100139.78
2023-04-05T10:03:51.126Z,100140.66
2023-04-05T10:06:19.259Z,100134.28
2023-04-05T10:08:50.748Z,100143.94
2023-04-05T10:11:21.097Z,100142.63
2023-04-05T10:13:50.806Z,100140.16
2023-04-05T10:16:25.595Z,100132.47
2023-04-05T10:18:54.050Z,100132.97
2023-04-05T10:21:25.388Z,100127.25
2023-04-05T10:24:07.044Z,100125.28
2023-04-05T10:26:47.613Z,100127.12
2023-04-05T10:29:26.403Z,100110.28
2023-04-05T10:32:11.478Z,100115.13
2023-04-05T10:34:58.878Z,100114.03
2023-04-05T10:37:37.277Z,100117.72
2023-04-05T10:40:18.741Z,100101.25
2023-04-05T10:42:50.621Z,100114.69
2023-04-05T10:45:22.662Z,100119.22
2023-04-05T10:47:59.550Z,100111.75
2023-04-05T10:50:28.292Z,100107.34
2023-04-05T10:53:05.697Z,100097.47
2023-04-05T10:55:35.540Z,100108.50
2023-04-05T10:58:05.785Z,100094.13
2023-04-05T11:00:43.812Z,100101.28
2023-04-05T11:03:51.982Z,100090.12
2023-04-05T11:06:33.628Z,100094.59
2023-04-05T11:09:11.767Z,100087.09
2023-04-05T11:11:44.060Z,100090.97
2023-04-05T11:14:28.855Z,100091.69
2023-04-05T11:16:59.227Z,100096.03
2023-04-05T11:19:48.646Z,100080.22
2023-04-05T11:22:27.659Z,100082.53
2023-04-05T11:25:04.913Z,100091.69
2023-04-05T11:27:37.764Z,100082.50
2023-04-05T11:30:09.988Z,100080.91
2023-04-05T11:32:45.231Z,100084.31
2023-04-05T11:35:24.683Z,100084.50
2023-04-05T11:37:57.143Z,100083.06
2023-04-05T11:40:34.754Z,100076.09
2023-04-05T11:43:08.058Z,100076.44
2023-04-05T11:45:39.789Z,100079.88
2023-04-05T11:48:14.700Z,100068.50
2023-04-05T11:50:45.622Z,100080.25
2023-04-05T11:53:16.855Z,100064.59
2023-04-05T11:55:56.695Z,100066.09
2023-04-05T11:58:26.861Z,100064.50
2023-04-05T12:01:00.533Z,100057.50
2023-04-05T12:03:32.726Z,100054.53
2023-04-05T12:06:05.139Z,100056.31
2023-04-05T12:08:43.028Z,100060.06
2023-04-05T12:11:14.943Z,100046.38
2023-04-05T12:14:00.813Z,100049.59
2023-04-05T12:16:40.702Z,100044.53
2023-04-05T12:19:10.515Z,100032.69
2023-04-05T12:21:45.985Z,100038.75
2023-04-05T12:24:17.767Z,100030.03
2023-04-05T12:26:46.968Z,100025.97
2023-04-05T12:29:22.085Z,100022.16
2023-04-05T12:31:52.933Z,100016.72
2023-04-05T12:34:26.503Z,100014.66
2023-04-05T12:36:57.877Z,100026.25
2023-04-05T12:39:33.114Z,100015.31
2023-04-05T12:42:06.782Z,100012.41
2023-04-05T12:44:37.032Z,100020.13
2023-04-05T12:47:12.962Z,100014.47
2023-04-05T12:49:43.073Z,100009.00
2023-04-05T12:52:11.870Z,100005.41
2023-04-05T12:54:40.662Z,100005.56
2023-04-05T13:00:08.810Z,100002.28
2023-04-05T13:02:44.749Z,100006.44
2023-04-05T13:05:17.944Z,100003.69
2023-04-05T13:07:48.754Z,99995.25
2023-04-05T13:10:18.752Z,100006.87
2023-04-05T13:12:51.609Z,100000.19
2023-04-05T13:15:32.268Z,99995.09
2023-04-05T13:18:06.406Z,99985.31
2023-04-05T13:20:38.735Z,99988.59
2023-04-05T13:23:12.213Z,99994.63
2023-04-05T13:25:47.631Z,99985.53
2023-04-05T13:28:24.059Z,99980.38
2023-04-05T13:30:54.925Z,99981.38
2023-04-05T13:33:24.302Z,99984.03
2023-04-05T13:35:53.156Z,99988.41
2023-04-05T13:38:22.651Z,99980.78
2023-04-05T13:40:58.098Z,99973.50
2023-04-05T13:46:04.736Z,99976.59
2023-04-05T13:48:41.630Z,99972.84
2023-04-05T13:51:09.981Z,99972.31
2023-04-05T13:53:46.511Z,99970.13
2023-04-05T13:56:18.243Z,99974.97
2023-04-05T13:58:48.791Z,99982.91
2023-04-05T14:01:18.010Z,99976.75
2023-04-05T14:03:50.714Z,99976.66
2023-04-05T14:09:00.505Z,99980.72
2023-04-05T14:11:29.717Z,99980.50
2023-04-05T14:14:02.426Z,99983.22
2023-04-05T14:16:36.576Z,99984.47
2023-04-05T14:19:14.693Z,99982.97
2023-04-05T14:21:43.008Z,99981.75
2023-04-05T14:24:11.359Z,99978.69
2023-04-05T14:26:49.497Z,99977.84
2023-04-05T14:32:08.202Z,99973.78
2023-04-05T14:34:41.921Z,99974.16
2023-04-05T14:37:11.111Z,99969.34
2023-04-05T14:39:51.356Z,99971.22
2023-04-05T14:42:34.152Z,99975.41
2023-04-05T14:45:18.964Z,99979.47
2023-04-05T14:47:52.960Z,99979.63
2023-04-05T14:50:24.833Z,99974.62
2023-04-05T14:52:56.654Z,99986.50
2023-04-05T14:55:39.573Z,99977.53
2023-04-05T14:58:11.598Z,99971.50
2023-04-05T15:00:52.159Z,99976.56
2023-04-05T15:03:24.055Z,99981.16
2023-04-05T15:06:03.588Z,99980.22
2023-04-05T15:08:36.192Z,99976.53
2023-04-05T15:11:08.531Z,99983.47
2023-04-05T15:13:44.763Z,99980.47
2023-04-05T15:16:26.784Z,99983.50
2023-04-05T15:19:04.526Z,99986.06
2023-04-05T15:21:35.736Z,99982.25
2023-04-05T15:24:06.295Z,99982.50
2023-04-05T15:26:42.895Z,99985.37
2023-04-05T15:29:11.943Z,99992.66
2023-04-05T15:31:52.186Z,99997.16
2023-04-05T15:34:26.914Z,99994.81
2023-04-05T15:37:03.769Z,99991.22
2023-04-05T15:42:24.643Z,99993.50
2023-04-05T15:44:55.378Z,99985.13
2023-04-05T15:47:25.998Z,99989.34
2023-04-05T15:50:02.573Z,100000.09
2023-04-05T15:55:20.623Z,99999.28
2023-04-05T15:57:54.767Z,99995.97
2023-04-05T16:00:26.634Z,100001.91
2023-04-05T16:05:34.596Z,100007.13
2023-04-05T16:08:04.535Z,100002.63
2023-04-05T16:10:42.898Z,100003.69
2023-04-05T16:15:51.096Z,100009.78
2023-04-05T16:18:24.116Z,100008.47
2023-04-05T16:23:30.667Z,100011.97
2023-04-05T16:26:01.188Z,100013.06
2023-04-05T16:28:36.691Z,100012.38
2023-04-05T16:31:08.647Z,100011.62
2023-04-05T16:33:44.167Z,100009.13
2023-04-05T16:36:25.919Z,100009.63
2023-04-05T16:38:55.173Z,100011.75
2023-04-05T16:41:32.669Z,100001.25
2023-04-05T16:44:09.569Z,100010.25
2023-04-05T16:46:46.057Z,100010.88
2023-04-05T16:49:16.644Z,100006.03
2023-04-05T16:51:47.656Z,100002.75
2023-04-05T16:54:22.638Z,100010.97
2023-04-05T16:56:53.152Z,100003.25
2023-04-05T16:59:21.537Z,100012.34
2023-04-05T17:04:29.682Z,100013.19
2023-04-05T17:06:59.678Z,100008.91
2023-04-05T17:09:36.536Z,100013.72
2023-04-05T17:12:07.021Z,100014.28
2023-04-05T17:14:36.609Z,100013.50
2023-04-05T17:17:12.340Z,100009.97
2023-04-05T17:19:55.131Z,100011.00
2023-04-05T17:22:31.632Z,100009.69
2023-04-05T17:25:02.900Z,100011.25
2023-04-05T17:27:43.604Z,100007.72
2023-04-05T17:30:16.108Z,100017.00
2023-04-05T17:32:51.600Z,100013.37
2023-04-05T17:35:20.884Z,100021.88
2023-04-05T17:40:36.711Z,100029.03
2023-04-05T17:43:14.537Z,100018.25
2023-04-05T17:45:45.532Z,100021.38
2023-04-05T17:48:14.343Z,100026.50
2023-04-05T17:50:43.656Z,100031.94
2023-04-05T17:53:17.575Z,100033.16
2023-04-05T17:58:41.128Z,100033.59
2023-04-05T18:04:01.657Z,100039.59
2023-04-05T18:06:37.964Z,100039.44
2023-04-05T18:09:21.791Z,100046.84
2023-04-05T18:11:57.147Z,100054.22
2023-04-05T18:14:25.625Z,100049.25
2023-04-05T18:17:03.110Z,100055.41
2023-04-05T18:19:40.655Z,100049.88
2023-04-05T18:22:10.254Z,100060.59
2023-04-05T18:24:45.494Z,100063.44
2023-04-05T18:27:15.429Z,100066.59
2023-04-05T18:29:46.900Z,100069.81
2023-04-05T18:32:21.864Z,100070.53
2023-04-05T18:34:57.722Z,100068.59
2023-04-05T18:37:29.707Z,100078.47
2023-04-05T18:40:10.138Z,100077.44
2023-04-05T18:42:40.127Z,100077.16
2023-04-05T18:47:50.573Z,100080.91
2023-04-05T18:50:24.753Z,100078.16
2023-04-05T18:53:01.556Z,100078.59
2023-04-05T18:55:32.167Z,100079.47
2023-04-05T18:58:03.801Z,100078.19
2023-04-05T19:00:36.990Z,100085.75
2023-04-05T19:05:57.000Z,100077.97
2023-04-05T19:08:26.869Z,100083.31
2023-04-05T19:11:13.094Z,100075.72
2023-04-05T19:13:47.663Z,100087.16
2023-04-05T19:16:28.611Z,100076.62
2023-04-05T19:19:11.505Z,100081.88
2023-04-05T19:21:44.681Z,100086.78
2023-04-05T19:24:16.774Z,100086.78
2023-04-05T19:26:53.617Z,100094.47
2023-04-05T19:29:32.604Z,100092.47
2023-04-05T19:32:14.692Z,100092.78
2023-04-05T19:34:48.493Z,100096.41
2023-04-05T19:37:18.892Z,100096.47
2023-04-05T19:39:55.109Z,100104.34
2023-04-05T19:42:26.630Z,100102.53
2023-04-05T19:44:58.590Z,100106.72
2023-04-05T19:50:37.011Z,100097.59
2023-04-05T19:53:08.936Z,100098.28
2023-04-05T19:55:40.806Z,100096.19
2023-04-05T19:58:10.055Z,100099.13
2023-04-05T20:00:49.747Z,100087.38
2023-04-05T20:03:37.503Z,100090.41
2023-04-05T20:06:10.893Z,100088.59
2023-04-05T20:08:46.824Z,100088.44
2023-04-05T20:11:16.961Z,100087.44
2023-04-05T20:13:55.411Z,100091.72
2023-04-05T20:16:33.630Z,100092.19
2023-04-05T20:19:06.821Z,100082.19
2023-04-05T20:21:39.109Z,100084.59
2023-04-05T20:26:55.757Z,100092.94
2023-04-05T20:29:28.896Z,100104.19
2023-04-05T20:32:11.602Z,100118.69
2023-04-05T20:34:39.781Z,100119.81
2023-04-05T20:37:11.558Z,100117.16
2023-04-05T20:39:41.821Z,100121.69
2023-04-05T20:42:15.587Z,100120.75
2023-04-05T20:44:48.268Z,100119.53
2023-04-05T20:47:15.883Z,100115.91
2023-04-05T20:49:47.638Z,100124.91
2023-04-05T20:52:23.188Z,100127.16
2023-04-05T20:54:52.357Z,100123.28
2023-04-05T20:57:24.140Z,100129.44
2023-04-05T20:59:51.919Z,100133.66
2023-04-05T21:02:23.645Z,100136.94
2023-04-05T21:04:53.527Z,100143.62
2023-04-05T21:07:29.923Z,100149.06
2023-04-05T21:09:58.384Z,100142.66
2023-04-05T21:12:33.740Z,100141.69
2023-04-05T21:15:03.312Z,100149.19
2023-04-05T21:17:35.016Z,100146.75
2023-04-05T21:20:08.476Z,100154.91
2023-04-05T21:22:41.340Z,100143.25
2023-04-05T21:25:15.481Z,100147.78
2023-04-05T21:27:46.065Z,100146.94
2023-04-05T21:30:14.938Z,100151.56
2023-04-05T21:32:42.740Z,100150.44
2023-04-05T21:35:12.833Z,100150.16
2023-04-05T21:37:40.716Z,100147.78
2023-04-05T21:40:09.788Z,100145.69
2023-04-05T21:42:37.951Z,100155.28
2023-04-05T21:45:11.484Z,100153.94
2023-04-05T21:47:40.557Z,100154.81
2023-04-05T21:50:08.877Z,100155.41
2023-04-05T21:52:37.132Z,100155.81
2023-04-05T21:55:09.224Z,100151.75
2023-04-05T21:57:37.512Z,100155.84
2023-04-05T22:00:08.676Z,100152.00
2023-04-05T22:02:39.958Z,100158.22
2023-04-05T22:05:08.761Z,100157.66
2023-04-05T22:07:36.723Z,100161.88
2023-04-05T22:10:06.329Z,100158.31
2023-04-05T22:12:36.558Z,100158.69
2023-04-05T22:15:07.786Z,100161.25
2023-04-05T22:17:36.659Z,100157.22
2023-04-05T22:20:05.005Z,100157.47
2023-04-05T22:22:33.579Z,100153.75
2023-04-05T22:25:01.819Z,100159.91
2023-04-05T22:27:30.243Z,100152.00
2023-04-05T22:29:58.791Z,100158.28
2023-04-05T22:32:27.773Z,100162.81
2023-04-05T22:34:56.612Z,100158.84
2023-04-05T22:37:25.412Z,100157.66
2023-04-05T22:39:53.552Z,100157.03
2023-04-05T22:42:24.138Z,100158.13
2023-04-05T22:44:52.737Z,100164.53
2023-04-05T22:47:21.556Z,100159.69
2023-04-05T22:49:49.858Z,100157.38
2023-04-05T22:52:18.080Z,100156.63
2023-04-05T22:54:46.088Z,100158.25
2023-04-05T22:57:13.581Z,100161.63
2023-04-05T22:59:41.304Z,100156.03
2023-04-05T23:02:09.801Z,100161.63
2023-04-05T23:04:37.741Z,100160.84
2023-04-05T23:07:06.811Z,100156.53
2023-04-05T23:09:36.846Z,100164.59
2023-04-05T23:12:07.012Z,100158.25
2023-04-05T23:14:40.737Z,100159.56
2023-04-05T23:17:08.933Z,100158.81
2023-04-05T23:19:36.601Z,100162.22
2023-04-05T23:22:04.640Z,100160.66
2023-04-05T23:24:32.024Z,100155.97
2023-04-05T23:27:00.592Z,100158.75
2023-04-05T23:29:29.122Z,100157.06
2023-04-05T23:31:56.644Z,100149.91
2023-04-05T23:34:24.903Z,100155.84
2023-04-05T23:37:00.562Z,100154.25
2023-04-05T23:39:28.247Z,100155.53
2023-04-05T23:41:56.822Z,100148.16
2023-04-05T23:44:24.518Z,100152.00
2023-04-05T23:46:52.377Z,100149.84
2023-04-05T23:49:19.988Z,100147.69
2023-04-05T23:51:47.310Z,100144.22
2023-04-05T23:54:16.859Z,100139.03
2023-04-05T23:56:45.922Z,100140.50
2023-04-05T23:59:14.536Z,100140.41
